sensor_id;sensor_type;location;lat;lon;timestamp;pressure;altitude;pressure_sealevel;temperature;humidity
76762;BME280;65705;51.032;13.790;2023-02-28T00:01:20;101729.47;;;1.77;70.13
76762;BME280;65705;51.032;13.790;2023-02-28T00:03:46;101729.28;;;1.81;69.80
76762;BME280;65705;51.032;13.790;2023-02-28T00:06:12;101733.63;;;1.81;70.89
76762;BME280;65705;51.032;13.790;2023-02-28T00:08:39;101736.41;;;1.76;71.11
76762;BME280;65705;51.032;13.790;2023-02-28T00:11:06;101734.91;;;1.71;70.06
76762;BME280;65705;51.032;13.790;2023-02-28T00:13:34;101736.25;;;1.79;69.23
76762;BME280;65705;51.032;13.790;2023-02-28T00:16:06;101723.59;;;1.73;69.00
76762;BME280;65705;51.032;13.790;2023-02-28T00:18:33;101728.94;;;1.69;69.73
76762;BME280;65705;51.032;13.790;2023-02-28T00:20:59;101723.28;;;1.81;68.40
76762;BME280;65705;51.032;13.790;2023-02-28T00:23:26;101725.41;;;1.71;68.74
76762;BME280;65705;51.032;13.790;2023-02-28T00:25:52;101727.06;;;1.72;69.68
76762;BME280;65705;51.032;13.790;2023-02-28T00:28:18;101726.09;;;1.75;70.15
76762;BME280;65705;51.032;13.790;2023-02-28T00:30:44;101721.09;;;1.70;69.97
76762;BME280;65705;51.032;13.790;2023-02-28T00:33:10;101726.34;;;1.69;70.38
76762;BME280;65705;51.032;13.790;2023-02-28T00:35:36;101721.19;;;1.69;70.14
76762;BME280;65705;51.032;13.790;2023-02-28T00:38:02;101723.75;;;1.69;70.04
76762;BME280;65705;51.032;13.790;2023-02-28T00:40:28;101723.75;;;1.69;69.66
76762;BME280;65705;51.032;13.790;2023-02-28T00:42:53;101728.22;;;1.65;69.90
76762;BME280;65705;51.032;13.790;2023-02-28T00:45:19;101719.09;;;1.57;70.06
76762;BME280;65705;51.032;13.790;2023-02-28T00:47:45;101729.31;;;1.60;70.46
76762;BME280;65705;51.032;13.790;2023-02-28T00:50:12;101723.31;;;1.59;69.81
76762;BME280;65705;51.032;13.790;2023-02-28T00:52:37;101725.13;;;1.57;69.63
76762;BME280;65705;51.032;13.790;2023-02-28T00:55:04;101719.94;;;1.57;69.42
76762;BME280;65705;51.032;13.790;2023-02-28T00:57:30;101724.28;;;1.57;69.07
76762;BME280;65705;51.032;13.790;2023-02-28T00:59:55;101723.25;;;1.61;68.80
76762;BME280;65705;51.032;13.790;2023-02-28T01:02:22;101725.06;;;1.59;68.50
76762;BME280;65705;51.032;13.790;2023-02-28T01:04:48;101727.88;;;1.53;68.69
76762;BME280;65705;51.032;13.790;2023-02-28T01:07:14;101726.28;;;1.50;68.99
76762;BME280;65705;51.032;13.790;2023-02-28T01:09:41;101723.56;;;1.53;68.88
76762;BME280;65705;51.032;13.790;2023-02-28T01:12:07;101725.19;;;1.56;68.65
76762;BME280;65705;51.032;13.790;2023-02-28T01:14:34;101721.81;;;1.54;67.99
76762;BME280;65705;51.032;13.790;2023-02-28T01:17:00;101723.56;;;1.53;68.40
76762;BME280;65705;51.032;13.790;2023-02-28T01:19:26;101720.97;;;1.53;69.03
76762;BME280;65705;51.032;13.790;2023-02-28T01:21:51;101713.78;;;1.60;69.17
76762;BME280;65705;51.032;13.790;2023-02-28T01:24:17;101722.34;;;1.62;68.83
76762;BME280;65705;51.032;13.790;2023-02-28T01:26:44;101718.78;;;1.64;67.46
76762;BME280;65705;51.032;13.790;2023-02-28T01:29:09;101721.69;;;1.57;67.59
76762;BME280;65705;51.032;13.790;2023-02-28T01:31:35;101712.28;;;1.54;67.31
76762;BME280;65705;51.032;13.790;2023-02-28T01:34:01;101717.44;;;1.56;67.71
76762;BME280;65705;51.032;13.790;2023-02-28T01:36:28;101717.19;;;1.40;69.14
76762;BME280;65705;51.032;13.790;2023-02-28T01:38:55;101713.00;;;1.38;69.48
76762;BME280;65705;51.032;13.790;2023-02-28T01:41:24;101707.69;;;1.41;69.13
76762;BME280;65705;51.032;13.790;2023-02-28T01:47:08;101713.66;;;1.43;68.00
76762;BME280;65705;51.032;13.790;2023-02-28T01:49:34;101712.22;;;1.36;68.26
76762;BME280;65705;51.032;13.790;2023-02-28T01:52:00;101709.06;;;1.28;68.24
76762;BME280;65705;51.032;13.790;2023-02-28T01:54:31;101705.69;;;1.26;69.06
76762;BME280;65705;51.032;13.790;2023-02-28T01:57:12;101711.00;;;1.23;70.32
76762;BME280;65705;51.032;13.790;2023-02-28T02:02:06;101707.41;;;1.27;68.55
76762;BME280;65705;51.032;13.790;2023-02-28T02:04:36;101709.13;;;1.26;69.49
76762;BME280;65705;51.032;13.790;2023-02-28T02:07:04;101707.75;;;1.18;70.30
76762;BME280;65705;51.032;13.790;2023-02-28T02:09:30;101705.25;;;1.16;70.10
76762;BME280;65705;51.032;13.790;2023-02-28T02:11:56;101702.81;;;1.12;70.56
76762;BME280;65705;51.032;13.790;2023-02-28T02:15:10;101701.03;;;1.14;70.58
76762;BME280;65705;51.032;13.790;2023-02-28T02:17:46;101703.44;;;1.18;69.71
76762;BME280;65705;51.032;13.790;2023-02-28T02:20:38;101703.47;;;1.17;70.04
76762;BME280;65705;51.032;13.790;2023-02-28T02:23:33;101701.75;;;1.17;70.91
76762;BME280;65705;51.032;13.790;2023-02-28T02:29:34;101697.50;;;1.16;69.93
76762;BME280;65705;51.032;13.790;2023-02-28T02:38:07;101705.25;;;1.16;69.89
76762;BME280;65705;51.032;13.790;2023-02-28T02:40:44;101694.84;;;1.18;69.17
76762;BME280;65705;51.032;13.790;2023-02-28T02:43:18;101689.66;;;1.18;69.58
76762;BME280;65705;51.032;13.790;2023-02-28T02:45:56;101693.19;;;1.15;70.09
76762;BME280;65705;51.032;13.790;2023-02-28T02:48:26;101707.41;;;1.05;70.06
76762;BME280;65705;51.032;13.790;2023-02-28T02:51:06;101706.56;;;1.04;70.18
76762;BME280;65705;51.032;13.790;2023-02-28T02:53:58;101704.75;;;1.06;70.24
76762;BME280;65705;51.032;13.790;2023-02-28T02:56:28;101698.50;;;1.12;69.37
76762;BME280;65705;51.032;13.790;2023-02-28T02:59:00;101707.09;;;1.13;69.58
76762;BME280;65705;51.032;13.790;2023-02-28T03:01:29;101707.09;;;1.13;69.85
76762;BME280;65705;51.032;13.790;2023-02-28T03:04:23;101706.19;;;1.14;69.19
76762;BME280;65705;51.032;13.790;2023-02-28T03:06:53;101705.25;;;1.16;69.54
76762;BME280;65705;51.032;13.790;2023-02-28T03:09:23;101702.00;;;1.11;70.22
76762;BME280;65705;51.032;13.790;2023-02-28T03:11:51;101704.75;;;1.06;71.50
76762;BME280;65705;51.032;13.790;2023-02-28T03:14:32;101709.13;;;1.04;71.20
76762;BME280;65705;51.032;13.790;2023-02-28T03:17:30;101704.03;;;1.03;71.63
76762;BME280;65705;51.032;13.790;2023-02-28T03:27:55;101700.69;;;0.78;72.37
76762;BME280;65705;51.032;13.790;2023-02-28T03:30:45;101695.00;;;0.70;72.00
76762;BME280;65705;51.032;13.790;2023-02-28T03:33:23;101700.88;;;0.73;71.54
76762;BME280;65705;51.032;13.790;2023-02-28T03:35:57;101695.44;;;0.58;71.11
76762;BME280;65705;51.032;13.790;2023-02-28T03:41:30;101696.75;;;0.46;70.93
76762;BME280;65705;51.032;13.790;2023-02-28T03:44:01;101695.69;;;0.52;71.69
76762;BME280;65705;51.032;13.790;2023-02-28T03:46:31;101697.75;;;0.42;71.22
76762;BME280;65705;51.032;13.790;2023-02-28T03:49:21;101693.53;;;0.40;71.54
76762;BME280;65705;51.032;13.790;2023-02-28T03:51:49;101699.72;;;0.36;71.36
76762;BME280;65705;51.032;13.790;2023-02-28T03:54:21;101699.53;;;0.40;71.83
76762;BME280;65705;51.032;13.790;2023-02-28T03:56:55;101703.06;;;0.38;71.63
76762;BME280;65705;51.032;13.790;2023-02-28T03:59:23;101704.50;;;0.22;71.72
76762;BME280;65705;51.032;13.790;2023-02-28T04:01:51;101708.84;;;0.21;71.80
76762;BME280;65705;51.032;13.790;2023-02-28T04:04:17;101710.53;;;0.22;71.79
76762;BME280;65705;51.032;13.790;2023-02-28T04:06:44;101711.63;;;0.15;72.39
76762;BME280;65705;51.032;13.790;2023-02-28T04:09:12;101709.16;;;0.12;72.52
76762;BME280;65705;51.032;13.790;2023-02-28T04:11:50;101717.41;;;0.22;72.75
76762;BME280;65705;51.032;13.790;2023-02-28T04:14:19;101717.91;;;0.08;72.32
76762;BME280;65705;51.032;13.790;2023-02-28T04:16:45;101718.09;;;0.02;73.24
76762;BME280;65705;51.032;13.790;2023-02-28T04:19:11;101720.06;;;-0.05;72.89
76762;BME280;65705;51.032;13.790;2023-02-28T04:21:44;101726.09;;;-0.04;73.01
76762;BME280;65705;51.032;13.790;2023-02-28T04:24:13;101730.50;;;-0.08;72.75
76762;BME280;65705;51.032;13.790;2023-02-28T04:26:43;101728.53;;;-0.01;73.26
76762;BME280;65705;51.032;13.790;2023-02-28T04:29:10;101730.25;;;0.00;73.47
76762;BME280;65705;51.032;13.790;2023-02-28T04:31:36;101739.78;;;-0.02;73.30
76762;BME280;65705;51.032;13.790;2023-02-28T04:34:02;101733.91;;;-0.07;73.17
76762;BME280;65705;51.032;13.790;2023-02-28T04:36:28;101733.22;;;-0.12;73.04
76762;BME280;65705;51.032;13.790;2023-02-28T04:38:54;101737.69;;;-0.17;73.31
76762;BME280;65705;51.032;13.790;2023-02-28T04:41:21;101737.66;;;-0.16;73.58
76762;BME280;65705;51.032;13.790;2023-02-28T04:43:48;101742.75;;;-0.14;73.55
76762;BME280;65705;51.032;13.790;2023-02-28T04:46:13;101740.16;;;-0.13;73.91
76762;BME280;65705;51.032;13.790;2023-02-28T04:48:40;101742.75;;;-0.14;74.05
76762;BME280;65705;51.032;13.790;2023-02-28T04:51:10;101742.31;;;-0.27;73.73
76762;BME280;65705;51.032;13.790;2023-02-28T04:53:38;101736.53;;;-0.33;74.19
76762;BME280;65705;51.032;13.790;2023-02-28T04:56:05;101737.44;;;-0.36;73.65
76762;BME280;65705;51.032;13.790;2023-02-28T04:58:31;101736.63;;;-0.36;73.43
76762;BME280;65705;51.032;13.790;2023-02-28T05:01:45;101739.91;;;-0.31;73.92
76762;BME280;65705;51.032;13.790;2023-02-28T05:03:51;101730.69;;;-0.38;74.22
76762;BME280;65705;51.032;13.790;2023-02-28T05:06:18;101740.31;;;-0.45;73.79
76762;BME280;65705;51.032;13.790;2023-02-28T05:08:44;101736.13;;;-0.47;74.03
76762;BME280;65705;51.032;13.790;2023-02-28T05:13:49;101748.34;;;-0.54;74.02
76762;BME280;65705;51.032;13.790;2023-02-28T05:16:15;101744.72;;;-0.47;74.17
76762;BME280;65705;51.032;13.790;2023-02-28T05:18:41;101744.66;;;-0.45;74.21
76762;BME280;65705;51.032;13.790;2023-02-28T05:21:23;101742.88;;;-0.43;74.65
76762;BME280;65705;51.032;13.790;2023-02-28T05:23:49;101755.06;;;-0.48;74.22
76762;BME280;65705;51.032;13.790;2023-02-28T05:26:15;101749.09;;;-0.49;74.63
76762;BME280;65705;51.032;13.790;2023-02-28T05:28:41;101755.06;;;-0.48;74.32
76762;BME280;65705;51.032;13.790;2023-02-28T05:31:09;101755.16;;;-0.51;74.26
76762;BME280;65705;51.032;13.790;2023-02-28T05:33:36;101756.88;;;-0.52;74.71
76762;BME280;65705;51.032;13.790;2023-02-28T05:36:01;101760.47;;;-0.56;74.65
76762;BME280;65705;51.032;13.790;2023-02-28T05:38:27;101754.56;;;-0.59;74.55
76762;BME280;65705;51.032;13.790;2023-02-28T05:40:53;101756.16;;;-0.55;74.42
76762;BME280;65705;51.032;13.790;2023-02-28T05:43:18;101757.06;;;-0.56;73.89
76762;BME280;65705;51.032;13.790;2023-02-28T05:45:44;101756.09;;;-0.54;73.68
76762;BME280;65705;51.032;13.790;2023-02-28T05:48:11;101763.81;;;-0.54;73.93
76762;BME280;65705;51.032;13.790;2023-02-28T05:50:37;101759.69;;;-0.58;74.11
76762;BME280;65705;51.032;13.790;2023-02-28T05:53:03;101754.47;;;-0.56;74.18
76762;BME280;65705;51.032;13.790;2023-02-28T05:55:29;101763.94;;;-0.57;74.59
76762;BME280;65705;51.032;13.790;2023-02-28T05:57:55;101769.31;;;-0.64;74.53
76762;BME280;65705;51.032;13.790;2023-02-28T06:00:21;101765.00;;;-0.64;74.29
76762;BME280;65705;51.032;13.790;2023-02-28T06:02:47;101764.16;;;-0.64;74.67
76762;BME280;65705;51.032;13.790;2023-02-28T06:05:15;101771.06;;;-0.65;74.57
76762;BME280;65705;51.032;13.790;2023-02-28T06:07:41;101776.97;;;-0.61;74.45
76762;BME280;65705;51.032;13.790;2023-02-28T06:10:07;101775.03;;;-0.55;74.41
76762;BME280;65705;51.032;13.790;2023-02-28T06:12:33;101780.94;;;-0.51;73.87
76762;BME280;65705;51.032;13.790;2023-02-28T06:14:58;101777.78;;;-0.59;74.18
76762;BME280;65705;51.032;13.790;2023-02-28T06:17:24;101781.19;;;-0.59;74.27
76762;BME280;65705;51.032;13.790;2023-02-28T06:19:50;101776.13;;;-0.62;74.54
76762;BME280;65705;51.032;13.790;2023-02-28T06:22:15;101788.03;;;-0.58;74.52
76762;BME280;65705;51.032;13.790;2023-02-28T06:24:41;101788.97;;;-0.60;74.50
76762;BME280;65705;51.032;13.790;2023-02-28T06:27:07;101791.44;;;-0.57;74.10
76762;BME280;65705;51.032;13.790;2023-02-28T06:29:33;101801.69;;;-0.54;74.53
76762;BME280;65705;51.032;13.790;2023-02-28T06:31:59;101799.91;;;-0.52;74.52
76762;BME280;65705;51.032;13.790;2023-02-28T06:34:25;101795.34;;;-0.44;73.36
76762;BME280;65705;51.032;13.790;2023-02-28T06:36:52;101808.91;;;-0.38;73.85
76762;BME280;65705;51.032;13.790;2023-02-28T06:39:18;101805.53;;;-0.40;74.03
76762;BME280;65705;51.032;13.790;2023-02-28T06:41:44;101814.88;;;-0.37;72.98
76762;BME280;65705;51.032;13.790;2023-02-28T06:44:20;101821.75;;;-0.36;73.41
76762;BME280;65705;51.032;13.790;2023-02-28T06:46:46;101826.03;;;-0.37;73.09
76762;BME280;65705;51.032;13.790;2023-02-28T06:49:12;101833.91;;;-0.41;72.92
76762;BME280;65705;51.032;13.790;2023-02-28T06:51:40;101824.84;;;-0.53;73.43
76762;BME280;65705;51.032;13.790;2023-02-28T06:54:07;101830.63;;;-0.46;73.51
76762;BME280;65705;51.032;13.790;2023-02-28T06:56:36;101833.91;;;-0.41;73.24
76762;BME280;65705;51.032;13.790;2023-02-28T06:59:02;101836.19;;;-0.32;72.90
76762;BME280;65705;51.032;13.790;2023-02-28T07:01:29;101833.25;;;-0.20;72.37
76762;BME280;65705;51.032;13.790;2023-02-28T07:03:57;101832.34;;;-0.19;72.22
76762;BME280;65705;51.032;13.790;2023-02-28T07:06:23;101841.50;;;-0.09;71.67
76762;BME280;65705;51.032;13.790;2023-02-28T07:08:51;101836.41;;;-0.12;70.95
76762;BME280;65705;51.032;13.790;2023-02-28T07:11:19;101838.66;;;-0.02;70.58
76762;BME280;65705;51.032;13.790;2023-02-28T07:13:44;101834.97;;;0.07;70.40
76762;BME280;65705;51.032;13.790;2023-02-28T07:16:12;101839.28;;;0.31;69.23
76762;BME280;65705;51.032;13.790;2023-02-28T07:18:37;101846.97;;;0.33;67.94
76762;BME280;65705;51.032;13.790;2023-02-28T07:21:08;101839.88;;;0.39;68.83
76762;BME280;65705;51.032;13.790;2023-02-28T07:23:34;101843.78;;;0.51;68.07
76762;BME280;65705;51.032;13.790;2023-02-28T07:26:00;101843.63;;;0.55;67.93
76762;BME280;65705;51.032;13.790;2023-02-28T07:28:26;101845.66;;;0.46;67.46
76762;BME280;65705;51.032;13.790;2023-02-28T07:30:52;101837.88;;;0.47;68.04
76762;BME280;65705;51.032;13.790;2023-02-28T07:33:18;101844.63;;;0.51;68.41
76762;BME280;65705;51.032;13.790;2023-02-28T07:35:44;101843.56;;;0.57;68.37
76762;BME280;65705;51.032;13.790;2023-02-28T07:38:10;101846.22;;;0.55;67.63
76762;BME280;65705;51.032;13.790;2023-02-28T07:40:36;101842.84;;;0.53;68.49
76762;BME280;65705;51.032;13.790;2023-02-28T07:43:03;101849.47;;;0.60;69.49
76762;BME280;65705;51.032;13.790;2023-02-28T07:45:29;101840.66;;;0.66;68.46
76762;BME280;65705;51.032;13.790;2023-02-28T07:47:57;101848.19;;;0.72;68.64
76762;BME280;65705;51.032;13.790;2023-02-28T07:50:23;101841.03;;;0.80;68.50
76762;BME280;65705;51.032;13.790;2023-02-28T07:52:49;101852.88;;;0.85;68.39
76762;BME280;65705;51.032;13.790;2023-02-28T07:55:14;101848.22;;;0.95;67.63
76762;BME280;65705;51.032;13.790;2023-02-28T07:57:42;101849.63;;;1.03;67.94
76762;BME280;65705;51.032;13.790;2023-02-28T08:00:09;101851.38;;;1.03;67.56
76762;BME280;65705;51.032;13.790;2023-02-28T08:02:39;101851.94;;;1.11;67.65
76762;BME280;65705;51.032;13.790;2023-02-28T08:05:06;101854.28;;;1.17;67.88
76762;BME280;65705;51.032;13.790;2023-02-28T08:07:32;101852.38;;;1.22;67.21
76762;BME280;65705;51.032;13.790;2023-02-28T08:09:59;101853.06;;;1.27;66.47
76762;BME280;65705;51.032;13.790;2023-02-28T08:12:25;101848.63;;;1.31;66.70
76762;BME280;65705;51.032;13.790;2023-02-28T08:14:50;101849.41;;;1.33;66.85
76762;BME280;65705;51.032;13.790;2023-02-28T08:17:16;101849.34;;;1.34;67.53
76762;BME280;65705;51.032;13.790;2023-02-28T08:19:41;101838.88;;;1.37;66.65
76762;BME280;65705;51.032;13.790;2023-02-28T08:22:07;101841.53;;;1.36;66.62
76762;BME280;65705;51.032;13.790;2023-02-28T08:24:33;101850.13;;;1.36;67.33
76762;BME280;65705;51.032;13.790;2023-02-28T08:26:59;101851.47;;;1.46;67.20
76762;BME280;65705;51.032;13.790;2023-02-28T08:29:24;101850.31;;;1.53;66.55
76762;BME280;65705;51.032;13.790;2023-02-28T08:31:51;101857.66;;;1.64;66.06
76762;BME280;65705;51.032;13.790;2023-02-28T08:34:17;101852.72;;;1.79;65.72
76762;BME280;65705;51.032;13.790;2023-02-28T08:36:43;101856.44;;;1.94;65.79
76762;BME280;65705;51.032;13.790;2023-02-28T08:39:12;101857.00;;;2.02;65.46
76762;BME280;65705;51.032;13.790;2023-02-28T08:41:38;101851.13;;;2.19;64.97
76762;BME280;65705;51.032;13.790;2023-02-28T08:44:04;101855.25;;;2.23;64.07
76762;BME280;65705;51.032;13.790;2023-02-28T08:46:29;101861.56;;;2.37;63.87
76762;BME280;65705;51.032;13.790;2023-02-28T08:48:56;101857.03;;;2.42;62.83
76762;BME280;65705;51.032;13.790;2023-02-28T08:51:26;101853.00;;;2.35;63.27
76762;BME280;65705;51.032;13.790;2023-02-28T08:53:53;101855.22;;;2.44;61.90
76762;BME280;65705;51.032;13.790;2023-02-28T08:56:19;101856.13;;;2.43;62.44
76762;BME280;65705;51.032;13.790;2023-02-28T08:58:46;101856.38;;;2.57;61.74
76762;BME280;65705;51.032;13.790;2023-02-28T09:01:22;101850.81;;;2.66;60.80
76762;BME280;65705;51.032;13.790;2023-02-28T09:03:51;101856.25;;;2.60;60.63
76762;BME280;65705;51.032;13.790;2023-02-28T09:06:19;101849.06;;;2.67;60.89
76762;BME280;65705;51.032;13.790;2023-02-28T09:08:45;101846.56;;;2.84;59.83
76762;BME280;65705;51.032;13.790;2023-02-28T09:11:12;101845.53;;;2.88;58.51
76762;BME280;65705;51.032;13.790;2023-02-28T09:13:38;101849.03;;;2.87;59.04
76762;BME280;65705;51.032;13.790;2023-02-28T09:16:06;101846.63;;;3.02;57.96
76762;BME280;65705;51.032;13.790;2023-02-28T09:18:34;101846.09;;;2.94;56.76
76762;BME280;65705;51.032;13.790;2023-02-28T09:21:06;101842.97;;;3.06;56.34
76762;BME280;65705;51.032;13.790;2023-02-28T09:23:32;101847.66;;;2.98;56.35
76762;BME280;65705;51.032;13.790;2023-02-28T09:25:58;101837.06;;;3.03;56.75
76762;BME280;65705;51.032;13.790;2023-02-28T09:28:24;101840.66;;;3.00;56.72
76762;BME280;65705;51.032;13.790;2023-02-28T09:30:54;101841.50;;;3.01;57.24
76762;BME280;65705;51.032;13.790;2023-02-28T09:33:21;101836.16;;;3.04;63.61
76762;BME280;65705;51.032;13.790;2023-02-28T09:35:48;101831.91;;;3.21;61.13
76762;BME280;65705;51.032;13.790;2023-02-28T09:38:13;101839.19;;;3.13;57.30
76762;BME280;65705;51.032;13.790;2023-02-28T09:40:48;101829.53;;;3.17;55.27
76762;BME280;65705;51.032;13.790;2023-02-28T09:43:15;101826.16;;;3.15;53.44
76762;BME280;65705;51.032;13.790;2023-02-28T09:45:48;101832.72;;;3.03;52.78
76762;BME280;65705;51.032;13.790;2023-02-28T09:48:22;101837.13;;;3.01;53.32
76762;BME280;65705;51.032;13.790;2023-02-28T09:50:52;101836.56;;;2.95;53.62
76762;BME280;65705;51.032;13.790;2023-02-28T09:53:28;101830.56;;;2.74;52.83
76762;BME280;65705;51.032;13.790;2023-02-28T09:56:18;101828.56;;;2.81;52.88
76762;BME280;65705;51.032;13.790;2023-02-28T09:59:41;101833.13;;;2.76;51.68
76762;BME280;65705;51.032;13.790;2023-02-28T10:04:56;101837.00;;;2.66;51.33
76762;BME280;65705;51.032;13.790;2023-02-28T10:09:59;101831.94;;;2.83;51.08
76762;BME280;65705;51.032;13.790;2023-02-28T10:12:29;101835.09;;;2.89;51.19
76762;BME280;65705;51.032;13.790;2023-02-28T10:14:57;101831.94;;;2.83;51.13
76762;BME280;65705;51.032;13.790;2023-02-28T10:17:26;101833.22;;;2.73;51.05
76762;BME280;65705;51.032;13.790;2023-02-28T10:20:02;101830.75;;;2.90;51.16
76762;BME280;65705;51.032;13.790;2023-02-28T10:25:18;101829.03;;;3.28;51.23
76762;BME280;65705;51.032;13.790;2023-02-28T10:27:44;101831.97;;;3.39;50.61
76762;BME280;65705;51.032;13.790;2023-02-28T10:30:12;101830.97;;;3.41;51.11
76762;BME280;65705;51.032;13.790;2023-02-28T10:32:40;101830.41;;;3.53;50.39
76762;BME280;65705;51.032;13.790;2023-02-28T10:35:20;101832.28;;;3.50;50.72
76762;BME280;65705;51.032;13.790;2023-02-28T10:37:49;101823.84;;;3.28;49.75
76762;BME280;65705;51.032;13.790;2023-02-28T10:45:56;101830.34;;;3.17;50.50
76762;BME280;65705;51.032;13.790;2023-02-28T10:55:43;101819.13;;;3.36;49.87
76762;BME280;65705;51.032;13.790;2023-02-28T10:58:22;101814.22;;;3.48;50.04
76762;BME280;65705;51.032;13.790;2023-02-28T11:00:49;101821.03;;;3.51;50.53
76762;BME280;65705;51.032;13.790;2023-02-28T11:03:30;101804.69;;;3.66;49.67
76762;BME280;65705;51.032;13.790;2023-02-28T11:05:57;101816.78;;;3.67;49.54
76762;BME280;65705;51.032;13.790;2023-02-28T11:08:24;101803.19;;;3.62;49.32
76762;BME280;65705;51.032;13.790;2023-02-28T11:10:55;101809.75;;;3.69;49.75
76762;BME280;65705;51.032;13.790;2023-02-28T11:13:26;101806.47;;;3.65;49.35
76762;BME280;65705;51.032;13.790;2023-02-28T11:15:55;101804.84;;;3.63;50.55
76762;BME280;65705;51.032;13.790;2023-02-28T11:21:18;101804.91;;;3.80;51.42
76762;BME280;65705;51.032;13.790;2023-02-28T11:23:44;101803.97;;;3.81;50.01
76762;BME280;65705;51.032;13.790;2023-02-28T11:26:10;101794.34;;;3.83;49.70
76762;BME280;65705;51.032;13.790;2023-02-28T11:28:39;101791.88;;;3.63;49.61
76762;BME280;65705;51.032;13.790;2023-02-28T11:31:15;101793.84;;;3.58;49.40
76762;BME280;65705;51.032;13.790;2023-02-28T11:33:47;101784.59;;;3.52;49.54
76762;BME280;65705;51.032;13.790;2023-02-28T11:38:42;101783.03;;;3.31;49.45
76762;BME280;65705;51.032;13.790;2023-02-28T11:51:39;101775.81;;;3.00;49.84
76762;BME280;65705;51.032;13.790;2023-02-28T11:54:31;101774.63;;;2.89;50.29
76762;BME280;65705;51.032;13.790;2023-02-28T11:57:19;101768.59;;;3.07;50.81
76762;BME280;65705;51.032;13.790;2023-02-28T12:00:02;101769.63;;;3.21;50.08
76762;BME280;65705;51.032;13.790;2023-02-28T12:03:31;101766.50;;;3.15;50.61
76762;BME280;65705;51.032;13.790;2023-02-28T12:05:58;101766.00;;;3.26;50.21
76762;BME280;65705;51.032;13.790;2023-02-28T12:13:45;101770.91;;;3.32;50.32
76762;BME280;65705;51.032;13.790;2023-02-28T12:18:53;101772.03;;;3.26;50.28
76762;BME280;65705;51.032;13.790;2023-02-28T12:26:50;101766.09;;;3.41;49.48
76762;BME280;65705;51.032;13.790;2023-02-28T12:29:21;101770.09;;;3.48;49.20
76762;BME280;65705;51.032;13.790;2023-02-28T12:31:53;101768.63;;;3.43;48.54
76762;BME280;65705;51.032;13.790;2023-02-28T12:34:23;101764.00;;;3.49;48.70
76762;BME280;65705;51.032;13.790;2023-02-28T12:36:52;101768.63;;;3.43;49.08
76762;BME280;65705;51.032;13.790;2023-02-28T12:39:23;101768.66;;;3.60;50.20
76762;BME280;65705;51.032;13.790;2023-02-28T12:41:55;101755.16;;;3.70;49.49
76762;BME280;65705;51.032;13.790;2023-02-28T12:44:33;101761.34;;;3.68;50.02
76762;BME280;65705;51.032;13.790;2023-02-28T12:47:02;101760.75;;;3.80;49.54
76762;BME280;65705;51.032;13.790;2023-02-28T12:49:34;101756.69;;;3.91;49.13
76762;BME280;65705;51.032;13.790;2023-02-28T12:52:03;101755.63;;;3.95;49.63
76762;BME280;65705;51.032;13.790;2023-02-28T12:54:40;101747.38;;;4.04;49.67
76762;BME280;65705;51.032;13.790;2023-02-28T13:10:58;101747.13;;;4.09;48.68
76762;BME280;65705;51.032;13.790;2023-02-28T13:13:26;101741.72;;;4.13;49.00
76762;BME280;65705;51.032;13.790;2023-02-28T13:16:08;101747.78;;;4.14;48.72
76762;BME280;65705;51.032;13.790;2023-02-28T13:18:45;101740.88;;;4.13;49.33
76762;BME280;65705;51.032;13.790;2023-02-28T13:21:28;101741.50;;;4.01;49.40
76762;BME280;65705;51.032;13.790;2023-02-28T13:29:32;101736.84;;;3.90;50.48
76762;BME280;65705;51.032;13.790;2023-02-28T13:34:32;101743.72;;;3.91;49.92
76762;BME280;65705;51.032;13.790;2023-02-28T13:42:48;101740.88;;;3.79;49.74
76762;BME280;65705;51.032;13.790;2023-02-28T13:45:27;101740.28;;;3.74;50.74
76762;BME280;65705;51.032;13.790;2023-02-28T13:47:58;101728.22;;;3.73;50.50
76762;BME280;65705;51.032;13.790;2023-02-28T13:58:43;101727.81;;;3.80;51.07
76762;BME280;65705;51.032;13.790;2023-02-28T14:06:35;101718.97;;;4.01;50.08
76762;BME280;65705;51.032;13.790;2023-02-28T14:11:39;101716.81;;;4.09;49.19
76762;BME280;65705;51.032;13.790;2023-02-28T14:14:07;101711.91;;;4.20;48.60
76762;BME280;65705;51.032;13.790;2023-02-28T14:16:46;101706.03;;;4.17;48.27
76762;BME280;65705;51.032;13.790;2023-02-28T14:19:17;101718.81;;;4.04;48.87
76762;BME280;65705;51.032;13.790;2023-02-28T14:24:31;101701.34;;;4.23;48.77
76762;BME280;65705;51.032;13.790;2023-02-28T14:32:46;101694.81;;;4.32;47.41
76762;BME280;65705;51.032;13.790;2023-02-28T14:38:27;101693.34;;;4.44;48.39
76762;BME280;65705;51.032;13.790;2023-02-28T14:40:58;101695.03;;;4.45;48.37
76762;BME280;65705;51.032;13.790;2023-02-28T14:43:27;101692.69;;;4.40;48.56
76762;BME280;65705;51.032;13.790;2023-02-28T14:46:02;101688.47;;;4.38;48.49
76762;BME280;65705;51.032;13.790;2023-02-28T14:48:28;101688.16;;;4.44;48.48
76762;BME280;65705;51.032;13.790;2023-02-28T14:50:57;101695.28;;;4.40;48.57
76762;BME280;65705;51.032;13.790;2023-02-28T14:53:27;101687.41;;;4.42;48.66
76762;BME280;65705;51.032;13.790;2023-02-28T14:55:54;101696.44;;;4.35;48.86
76762;BME280;65705;51.032;13.790;2023-02-28T14:58:31;101692.69;;;4.40;48.78
76762;BME280;65705;51.032;13.790;2023-02-28T15:01:00;101694.81;;;4.32;49.30
76762;BME280;65705;51.032;13.790;2023-02-28T15:03:39;101703.28;;;4.20;49.19
76762;BME280;65705;51.032;13.790;2023-02-28T15:06:12;101695.88;;;4.12;49.33
76762;BME280;65705;51.032;13.790;2023-02-28T15:08:38;101693.59;;;4.06;49.86
76762;BME280;65705;51.032;13.790;2023-02-28T15:11:06;101697.09;;;4.05;49.52
76762;BME280;65705;51.032;13.790;2023-02-28T15:13:44;101695.66;;;4.00;49.46
76762;BME280;65705;51.032;13.790;2023-02-28T15:16:23;101702.06;;;4.10;49.69